Saint-Simeon, Canada
Current Conditions -  °F | °C
As of 1:00 PM on Thursday 30 Oct 2014 (Local Time) from CYBG Reporting Station
Broken Clouds Broken Clouds  
Wind Chill: 36°   Ceiling: 2000
Heat Index: 43°   Visibility: 25mi
Dew Point: 32°   Wind: 13mph
Humidity: 66%   Direction: 280°W
Pressure: 29.86"   Gusts: NA
Location:  47.85°N, 69.88°W
Report Text: CYBG 301700Z 28011KT 25SM BKN020 BKN060 06/M00 A2986 RMK SC5SC2 SLP119
Loading
Personal Weather Stations






























Interactive Weather Map
Tropical Storm Tracking
New forecast layout! Learn more

10-Day Weather Forecast

Advertisements
Track Severe Weather on mobile